KLUL

Hesler-Noble Field Airport

Laurel, Mississippi, USA
METAR KLUL 172055Z AUTO 24015G21KT 10SM SCT090 26/14 A3009 RMK AO2 T02600137
Observed Flight Rules
Feb-17 @ 20:55 UTC (42 minutes ago) Visual Flight Rules
Wind Visibility Clouds
240° at 15 knots
 Gusting to 21 knots
10 miles
  • Scattered at 9,000' AGL
Temperatures Readings
Current 26°C / 79°F
Dewpoint 14°C / 57°F
Humidity 48%
Altimeter 30.09" Hg
Pressure 1019 hPa
Elevation 73
METAR KLUL 172055Z AUTO 24015G21KT 10SM SCT090 26/14 A3009 RMK AO2 T02600137
Observed Flight Rules
Feb-17 @ 20:55 UTC
(42 minutes ago)
VFR
Wind Visibility
240° at 15 knots
 Gusting to 21 knots
10 miles
Clouds
  • Scattered at 9,000' AGL
Temperature Dewpoint
26°C / 79°F 14°C / 57°F
Humidity Altimeter Pressure
48% 30.09" Hg 1019 hPa